QFA59 YSSY-RJTT
Flight info
| Callsign | QFA59 |
|---|---|
| Flight time | N/A |
| Altitude | 36000 |
| Route | RIC H530 LASUD Q238 DUPUG/N0473F350 Q141 ESKUT/N0473F360 Q141 OVRON B462 APISO/N0473F380 B462 PY B586 UNZ DCT 1519N14409E/N0469F400 1951N14255E 2100N14237E 2230N14213E 2636N14107E UKATA B586 CADDY/N0460F390 T871 TOPIT Y875 AROSA |
| Aircraft | A333/H-SDE3GHIJ2J3J5M1RVWXY/LB2D1 |
Departure
| Time | 2026-04-23 05:35 |
|---|---|
| Airport | Sydney Kingsford Smith International Airport (YSSY) |
Arrival
| Time | N/A |
|---|---|
| Airport | Tokyo Haneda International Airport (RJTT) |
| Time | Latitude | Longitude | Altitude | Speed | Heading |
|---|---|---|---|---|---|
| 2026-04-23 04:58 | -33.93925 | 151.16988 | 29 ft | 0 kts | 254° |
| 2026-04-23 05:19 | -33.93924 | 151.16989 | 29 ft | 0 kts | 253° |
| 2026-04-23 05:19 | -33.93924 | 151.16991 | 29 ft | 0 kts | 252° |
| 2026-04-23 05:20 | -33.93923 | 151.16994 | 29 ft | 0 kts | 250° |
| 2026-04-23 05:20 | -33.93920 | 151.17004 | 29 ft | 2 kts | 245° |
| 2026-04-23 05:20 | -33.93912 | 151.17020 | 29 ft | 2 kts | 233° |
| 2026-04-23 05:20 | -33.93903 | 151.17033 | 29 ft | 2 kts | 224° |
| 2026-04-23 05:21 | -33.93891 | 151.17046 | 28 ft | 2 kts | 214° |
| 2026-04-23 05:21 | -33.93880 | 151.17053 | 28 ft | 2 kts | 206° |
| 2026-04-23 05:21 | -33.93866 | 151.17061 | 28 ft | 2 kts | 196° |
| 2026-04-23 05:21 | -33.93852 | 151.17065 | 27 ft | 2 kts | 187° |
| 2026-04-23 05:22 | -33.93838 | 151.17065 | 27 ft | 2 kts | 178° |
| 2026-04-23 05:22 | -33.93824 | 151.17065 | 27 ft | 2 kts | 169° |
| 2026-04-23 05:22 | -33.93811 | 151.17061 | 27 ft | 2 kts | 166° |
| 2026-04-23 05:22 | -33.93798 | 151.17058 | 27 ft | 2 kts | 167° |
| 2026-04-23 05:23 | -33.93788 | 151.17055 | 27 ft | 0 kts | 167° |
| 2026-04-23 05:27 | -33.93797 | 151.17058 | 27 ft | 2 kts | 169° |
| 2026-04-23 05:27 | -33.93825 | 151.17064 | 27 ft | 6 kts | 168° |
| 2026-04-23 05:28 | -33.93874 | 151.17076 | 27 ft | 8 kts | 168° |
| 2026-04-23 05:28 | -33.93924 | 151.17090 | 27 ft | 7 kts | 168° |
| 2026-04-23 05:28 | -33.93970 | 151.17108 | 27 ft | 7 kts | 148° |
| 2026-04-23 05:28 | -33.93985 | 151.17160 | 26 ft | 8 kts | 77° |
| 2026-04-23 05:29 | -33.93946 | 151.17210 | 23 ft | 10 kts | 13° |
| 2026-04-23 05:29 | -33.93875 | 151.17200 | 22 ft | 11 kts | 348° |
| 2026-04-23 05:29 | -33.93798 | 151.17180 | 22 ft | 12 kts | 348° |
| 2026-04-23 05:29 | -33.93726 | 151.17162 | 23 ft | 11 kts | 348° |
| 2026-04-23 05:30 | -33.93716 | 151.17158 | 23 ft | 11 kts | 348° |
| 2026-04-23 05:30 | -33.93649 | 151.17142 | 24 ft | 9 kts | 347° |
| 2026-04-23 05:30 | -33.93585 | 151.17125 | 25 ft | 11 kts | 348° |
| 2026-04-23 05:30 | -33.93511 | 151.17105 | 27 ft | 12 kts | 348° |
| 2026-04-23 05:31 | -33.93421 | 151.17082 | 28 ft | 15 kts | 348° |
| 2026-04-23 05:31 | -33.93322 | 151.17040 | 28 ft | 16 kts | 324° |
| 2026-04-23 05:31 | -33.93258 | 151.16968 | 29 ft | 11 kts | 331° |
| 2026-04-23 05:31 | -33.93187 | 151.16945 | 29 ft | 11 kts | 346° |
| 2026-04-23 05:32 | -33.93118 | 151.16927 | 29 ft | 10 kts | 348° |
| 2026-04-23 05:32 | -33.93053 | 151.16911 | 29 ft | 9 kts | 352° |
| 2026-04-23 05:32 | -33.93010 | 151.16916 | 29 ft | 6 kts | 21° |
| 2026-04-23 05:32 | -33.92984 | 151.16962 | 29 ft | 8 kts | 73° |
| 2026-04-23 05:33 | -33.92975 | 151.17000 | 29 ft | 0 kts | 77° |
| 2026-04-23 05:33 | -33.92975 | 151.17003 | 29 ft | 1 kts | 77° |
| 2026-04-23 05:33 | -33.92969 | 151.17029 | 28 ft | 5 kts | 75° |
| 2026-04-23 05:34 | -33.92960 | 151.17088 | 28 ft | 10 kts | 86° |
| 2026-04-23 05:34 | -33.92983 | 151.17162 | 28 ft | 10 kts | 142° |
| 2026-04-23 05:34 | -33.93042 | 151.17186 | 29 ft | 9 kts | 166° |
| 2026-04-23 05:34 | -33.93163 | 151.17218 | 28 ft | 41 kts | 168° |
| 2026-04-23 05:35 | -33.93593 | 151.17331 | 18 ft | 98 kts | 169° |
| 2026-04-23 05:35 | -33.94358 | 151.17528 | 27 ft | 145 kts | 167° |
| 2026-04-23 05:35 | -33.95484 | 151.17821 | 127 ft | 177 kts | 170° |
| 2026-04-23 05:35 | -33.96643 | 151.18059 | 786 ft | 170 kts | 178° |
| 2026-04-23 05:36 | -33.97832 | 151.17909 | 1310 ft | 175 kts | 187° |
| 2026-04-23 05:36 | -33.99022 | 151.17783 | 1941 ft | 173 kts | 186° |
| 2026-04-23 05:36 | -34.00219 | 151.17676 | 2345 ft | 171 kts | 185° |
| 2026-04-23 05:36 | -34.01458 | 151.17572 | 2543 ft | 180 kts | 185° |
| 2026-04-23 05:37 | -34.02749 | 151.17516 | 2642 ft | 194 kts | 173° |
| 2026-04-23 05:37 | -34.04131 | 151.17952 | 2775 ft | 212 kts | 165° |
| 2026-04-23 05:37 | -34.05626 | 151.18459 | 3058 ft | 227 kts | 166° |
| 2026-04-23 05:37 | -34.07221 | 151.18993 | 3353 ft | 243 kts | 165° |
| 2026-04-23 05:38 | -34.08881 | 151.19548 | 3695 ft | 256 kts | 165° |
| 2026-04-23 05:38 | -34.10632 | 151.20132 | 4287 ft | 259 kts | 165° |
| 2026-04-23 05:38 | -34.12366 | 151.20712 | 4887 ft | 261 kts | 165° |
| 2026-04-23 05:38 | -34.14140 | 151.21304 | 5484 ft | 264 kts | 165° |
| 2026-04-23 05:39 | -34.15910 | 151.21895 | 6073 ft | 266 kts | 165° |
| 2026-04-23 05:39 | -34.17715 | 151.22498 | 6645 ft | 269 kts | 166° |
| 2026-04-23 05:39 | -34.19562 | 151.22615 | 7253 ft | 274 kts | 192° |
| 2026-04-23 05:39 | -34.21305 | 151.21632 | 7758 ft | 283 kts | 220° |
| 2026-04-23 05:40 | -34.22632 | 151.19821 | 8256 ft | 289 kts | 230° |
| 2026-04-23 05:40 | -34.23943 | 151.17958 | 8829 ft | 290 kts | 229° |
| 2026-04-23 05:40 | -34.25122 | 151.15953 | 9436 ft | 294 kts | 247° |
| 2026-04-23 05:40 | -34.25515 | 151.13493 | 9897 ft | 304 kts | 274° |
| 2026-04-23 05:41 | -34.25067 | 151.10976 | 10279 ft | 313 kts | 287° |
| 2026-04-23 05:41 | -34.24482 | 151.08397 | 10459 ft | 329 kts | 290° |
| 2026-04-23 05:41 | -34.23301 | 151.05995 | 10977 ft | 332 kts | 316° |
| 2026-04-23 05:41 | -34.21404 | 151.04344 | 11477 ft | 334 kts | 340° |
| 2026-04-23 05:42 | -34.19172 | 151.03665 | 11978 ft | 333 kts | 355° |
| 2026-04-23 05:42 | -34.16924 | 151.03174 | 12449 ft | 337 kts | 353° |
| 2026-04-23 05:42 | -34.14576 | 151.02632 | 12983 ft | 339 kts | 353° |
| 2026-04-23 05:42 | -34.12227 | 151.02087 | 13451 ft | 341 kts | 353° |
| 2026-04-23 05:43 | -34.09980 | 151.01436 | 13870 ft | 346 kts | 347° |
| 2026-04-23 05:43 | -34.07683 | 151.00652 | 14365 ft | 348 kts | 348° |
| 2026-04-23 05:43 | -34.05333 | 150.99870 | 14782 ft | 352 kts | 348° |
| 2026-04-23 05:43 | -34.02913 | 150.99069 | 15240 ft | 355 kts | 348° |
| 2026-04-23 05:44 | -34.00541 | 150.98286 | 15650 ft | 358 kts | 348° |
| 2026-04-23 05:44 | -33.99540 | 150.97955 | 15834 ft | 360 kts | 348° |
| 2026-04-23 05:44 | -33.97987 | 150.97345 | 16041 ft | 364 kts | 341° |
| 2026-04-23 05:44 | -33.96687 | 150.96669 | 16103 ft | 372 kts | 338° |
| 2026-04-23 05:45 | -33.94284 | 150.95412 | 16230 ft | 384 kts | 339° |
| 2026-04-23 05:45 | -33.91739 | 150.94098 | 16383 ft | 396 kts | 339° |
| 2026-04-23 05:45 | -33.89154 | 150.92764 | 16622 ft | 404 kts | 339° |
| 2026-04-23 05:45 | -33.86659 | 150.91479 | 16777 ft | 414 kts | 339° |
| 2026-04-23 05:46 | -33.84005 | 150.90114 | 17056 ft | 420 kts | 339° |
| 2026-04-23 05:46 | -33.81374 | 150.88760 | 17493 ft | 422 kts | 339° |
| 2026-04-23 05:46 | -33.78776 | 150.87427 | 17858 ft | 424 kts | 339° |
| 2026-04-23 05:46 | -33.76039 | 150.86021 | 18197 ft | 428 kts | 339° |
| 2026-04-23 05:47 | -33.73308 | 150.84622 | 18617 ft | 429 kts | 339° |
| 2026-04-23 05:47 | -33.70513 | 150.83189 | 19048 ft | 431 kts | 339° |
| 2026-04-23 05:47 | -33.67771 | 150.81786 | 19458 ft | 432 kts | 338° |
| 2026-04-23 05:47 | -33.64973 | 150.80353 | 19857 ft | 434 kts | 338° |
| 2026-04-23 05:48 | -33.62203 | 150.78935 | 20237 ft | 435 kts | 338° |
| 2026-04-23 05:48 | -33.59480 | 150.77267 | 20516 ft | 438 kts | 326° |
| 2026-04-23 05:48 | -33.57169 | 150.74826 | 20895 ft | 438 kts | 315° |
| 2026-04-23 05:48 | -33.54994 | 150.72250 | 21326 ft | 438 kts | 316° |
| 2026-04-23 05:49 | -33.52819 | 150.69708 | 21599 ft | 442 kts | 316° |
| 2026-04-23 05:49 | -33.50587 | 150.67119 | 21945 ft | 444 kts | 316° |
| 2026-04-23 05:49 | -33.48389 | 150.64574 | 22300 ft | 445 kts | 316° |
| 2026-04-23 05:49 | -33.46143 | 150.61975 | 22677 ft | 445 kts | 316° |
| 2026-04-23 05:50 | -33.43898 | 150.59381 | 22987 ft | 447 kts | 316° |
| 2026-04-23 05:50 | -33.41652 | 150.56786 | 23294 ft | 449 kts | 316° |
| 2026-04-23 05:50 | -33.39411 | 150.54201 | 23641 ft | 450 kts | 316° |
| 2026-04-23 05:50 | -33.37177 | 150.51623 | 23948 ft | 451 kts | 316° |
| 2026-04-23 05:51 | -33.34901 | 150.49002 | 24235 ft | 452 kts | 316° |
| 2026-04-23 05:51 | -33.32631 | 150.46388 | 24536 ft | 454 kts | 316° |
| 2026-04-23 05:51 | -33.30354 | 150.43768 | 24775 ft | 456 kts | 315° |
| 2026-04-23 05:51 | -33.28072 | 150.41144 | 25040 ft | 458 kts | 315° |
| 2026-04-23 05:52 | -33.25761 | 150.38490 | 25319 ft | 459 kts | 315° |
| 2026-04-23 05:52 | -33.23450 | 150.35837 | 25562 ft | 461 kts | 315° |
| 2026-04-23 05:52 | -33.21155 | 150.33205 | 25794 ft | 463 kts | 316° |
| 2026-04-23 05:52 | -33.18794 | 150.30498 | 26098 ft | 464 kts | 316° |
| 2026-04-23 05:53 | -33.16463 | 150.27828 | 26377 ft | 465 kts | 316° |
| 2026-04-23 05:53 | -33.14129 | 150.25157 | 26589 ft | 467 kts | 316° |
| 2026-04-23 05:53 | -33.11811 | 150.22507 | 26899 ft | 467 kts | 316° |
| 2026-04-23 05:53 | -33.09455 | 150.19815 | 27188 ft | 467 kts | 316° |
| 2026-04-23 05:54 | -33.07119 | 150.17148 | 27417 ft | 469 kts | 316° |
| 2026-04-23 05:54 | -33.04744 | 150.14438 | 27659 ft | 470 kts | 316° |
| 2026-04-23 05:54 | -33.02405 | 150.11772 | 27900 ft | 471 kts | 316° |
| 2026-04-23 05:54 | -32.99997 | 150.09029 | 28141 ft | 472 kts | 316° |
| 2026-04-23 05:55 | -32.97593 | 150.06293 | 28353 ft | 474 kts | 316° |
| 2026-04-23 05:55 | -32.95186 | 150.03554 | 28586 ft | 474 kts | 316° |
| 2026-04-23 05:55 | -32.92767 | 150.00807 | 28764 ft | 476 kts | 316° |
| 2026-04-23 05:55 | -32.90311 | 149.98019 | 28945 ft | 478 kts | 316° |
| 2026-04-23 05:56 | -32.87900 | 149.95285 | 29118 ft | 479 kts | 316° |
| 2026-04-23 05:56 | -32.85473 | 149.92532 | 29275 ft | 480 kts | 316° |
| 2026-04-23 05:56 | -32.83057 | 149.89796 | 29419 ft | 482 kts | 316° |
| 2026-04-23 05:56 | -32.80627 | 149.87045 | 29605 ft | 482 kts | 316° |
| 2026-04-23 05:57 | -32.78189 | 149.84288 | 29847 ft | 481 kts | 316° |
| 2026-04-23 05:57 | -32.75747 | 149.81531 | 30108 ft | 480 kts | 316° |
| 2026-04-23 05:57 | -32.73357 | 149.78832 | 30360 ft | 479 kts | 316° |
| 2026-04-23 05:57 | -32.70933 | 149.76097 | 30603 ft | 478 kts | 316° |
| 2026-04-23 05:58 | -32.68544 | 149.73406 | 30824 ft | 477 kts | 316° |
| 2026-04-23 05:58 | -32.66142 | 149.70699 | 31013 ft | 477 kts | 316° |
| 2026-04-23 05:58 | -32.63725 | 149.67979 | 31180 ft | 477 kts | 316° |
| 2026-04-23 05:58 | -32.61339 | 149.65295 | 31360 ft | 477 kts | 316° |
| 2026-04-23 05:59 | -32.58898 | 149.62553 | 31548 ft | 476 kts | 316° |
| 2026-04-23 05:59 | -32.56573 | 149.59935 | 31703 ft | 475 kts | 315° |
| 2026-04-23 05:59 | -32.54387 | 149.56959 | 31793 ft | 474 kts | 308° |
| 2026-04-23 05:59 | -32.52337 | 149.53967 | 32011 ft | 473 kts | 308° |
| 2026-04-23 06:00 | -32.50265 | 149.50958 | 32177 ft | 473 kts | 308° |
| 2026-04-23 06:00 | -32.48178 | 149.47935 | 32309 ft | 473 kts | 308° |
| 2026-04-23 06:00 | -32.46096 | 149.44920 | 32454 ft | 472 kts | 308° |
| 2026-04-23 06:00 | -32.44031 | 149.41933 | 32595 ft | 472 kts | 308° |
| 2026-04-23 06:01 | -32.41946 | 149.38921 | 32739 ft | 471 kts | 308° |
| 2026-04-23 06:01 | -32.39883 | 149.35942 | 33173 ft | 464 kts | 308° |
| 2026-04-23 06:01 | -32.37858 | 149.33022 | 33711 ft | 454 kts | 309° |
| 2026-04-23 06:01 | -32.35877 | 149.30170 | 33928 ft | 453 kts | 309° |
| 2026-04-23 06:02 | -32.33892 | 149.27309 | 34064 ft | 453 kts | 309° |
| 2026-04-23 06:02 | -32.31878 | 149.24411 | 34197 ft | 454 kts | 309° |
| 2026-04-23 06:02 | -32.29898 | 149.21562 | 34322 ft | 454 kts | 309° |
| 2026-04-23 06:02 | -32.27874 | 149.18657 | 34474 ft | 453 kts | 309° |
| 2026-04-23 06:03 | -32.25885 | 149.15799 | 34613 ft | 453 kts | 309° |
| 2026-04-23 06:03 | -32.21901 | 149.10084 | 34822 ft | 452 kts | 309° |
| 2026-04-23 06:03 | -32.19896 | 149.07213 | 34948 ft | 452 kts | 308° |
| 2026-04-23 06:04 | -32.17893 | 149.04344 | 35122 ft | 449 kts | 308° |
| 2026-04-23 06:04 | -32.15908 | 149.01508 | 35351 ft | 445 kts | 308° |
| 2026-04-23 06:04 | -32.13972 | 148.98740 | 35485 ft | 444 kts | 308° |
| 2026-04-23 06:05 | -32.09946 | 148.93146 | 35698 ft | 446 kts | 315° |
| 2026-04-23 06:05 | -32.07536 | 148.90808 | 35803 ft | 449 kts | 326° |
| 2026-04-23 06:05 | -32.04832 | 148.89056 | 35886 ft | 451 kts | 336° |
| 2026-04-23 06:06 | -31.98726 | 148.87039 | 36078 ft | 455 kts | 356° |
| 2026-04-23 06:06 | -31.92397 | 148.86626 | 36102 ft | 458 kts | 357° |
| 2026-04-23 06:07 | -31.86000 | 148.86171 | 36208 ft | 460 kts | 357° |
| 2026-04-23 06:07 | -31.79622 | 148.85713 | 36281 ft | 461 kts | 357° |
| 2026-04-23 06:08 | -31.73210 | 148.85252 | 36280 ft | 462 kts | 357° |
| 2026-04-23 06:08 | -31.66772 | 148.84788 | 36268 ft | 466 kts | 357° |
| 2026-04-23 06:09 | -31.60278 | 148.84323 | 36276 ft | 468 kts | 357° |
| 2026-04-23 06:09 | -31.53761 | 148.83856 | 36281 ft | 470 kts | 357° |
| 2026-04-23 06:10 | -31.47202 | 148.83386 | 36271 ft | 472 kts | 357° |
| 2026-04-23 06:10 | -31.40612 | 148.82915 | 36270 ft | 474 kts | 357° |
| 2026-04-23 06:11 | -31.34066 | 148.82448 | 36266 ft | 476 kts | 357° |
| 2026-04-23 06:11 | -31.27361 | 148.81970 | 36273 ft | 477 kts | 357° |
| 2026-04-23 06:12 | -31.20688 | 148.81494 | 36271 ft | 478 kts | 357° |
| 2026-04-23 06:12 | -31.10730 | 148.80788 | 36240 ft | 481 kts | 357° |
| 2026-04-23 06:13 | -31.03984 | 148.80310 | 36241 ft | 481 kts | 357° |
| 2026-04-23 06:13 | -30.97296 | 148.79835 | 36236 ft | 482 kts | 357° |
| 2026-04-23 06:14 | -30.90572 | 148.79359 | 36241 ft | 482 kts | 357° |
| 2026-04-23 06:14 | -30.83876 | 148.78886 | 36224 ft | 482 kts | 357° |
| 2026-04-23 06:15 | -30.77157 | 148.78412 | 36233 ft | 479 kts | 357° |
| 2026-04-23 06:15 | -30.70421 | 148.77937 | 36234 ft | 478 kts | 357° |
| 2026-04-23 06:16 | -30.63694 | 148.77466 | 36221 ft | 479 kts | 357° |
| 2026-04-23 06:16 | -30.56995 | 148.76994 | 36226 ft | 478 kts | 357° |
| 2026-04-23 06:17 | -30.54446 | 148.76816 | 36213 ft | 478 kts | 357° |
| 2026-04-23 06:17 | -30.47727 | 148.76344 | 36221 ft | 478 kts | 357° |
| 2026-04-23 06:18 | -30.40814 | 148.75838 | 36224 ft | 477 kts | 356° |
| 2026-04-23 06:18 | -30.34205 | 148.75331 | 36227 ft | 476 kts | 356° |
| 2026-04-23 06:19 | -30.27599 | 148.74799 | 36218 ft | 476 kts | 356° |
| 2026-04-23 06:19 | -30.20810 | 148.74229 | 36216 ft | 477 kts | 356° |
| 2026-04-23 06:20 | -30.14229 | 148.73680 | 36235 ft | 476 kts | 358° |
| 2026-04-23 06:20 | -30.07555 | 148.73505 | 36173 ft | 476 kts | 358° |
| 2026-04-23 06:21 | -30.00967 | 148.73084 | 36229 ft | 475 kts | 357° |
| 2026-04-23 06:21 | -29.94369 | 148.72630 | 36226 ft | 475 kts | 357° |
| 2026-04-23 06:22 | -29.88566 | 148.72229 | 36229 ft | 475 kts | 357° |
| 2026-04-23 06:24 | -29.83073 | 148.71849 | 36213 ft | 475 kts | 357° |
| 2026-04-23 06:25 | -29.76419 | 148.71390 | 36278 ft | 472 kts | 357° |
| 2026-04-23 06:25 | -29.69693 | 148.70924 | 36222 ft | 473 kts | 357° |
| 2026-04-23 06:26 | -29.69119 | 148.70885 | 36247 ft | 473 kts | 357° |
| 2026-04-23 06:28 | -29.64278 | 148.70552 | 36173 ft | 475 kts | 357° |
| 2026-04-23 06:28 | -29.60550 | 148.70296 | 36254 ft | 473 kts | 357° |
| 2026-04-23 06:29 | -29.60061 | 148.70262 | 36264 ft | 473 kts | 357° |
| 2026-04-23 06:29 | -29.58691 | 148.70167 | 36251 ft | 474 kts | 357° |
| 2026-04-23 06:30 | -29.52089 | 148.69714 | 36250 ft | 472 kts | 357° |
| 2026-04-23 06:30 | -29.45499 | 148.69261 | 36202 ft | 473 kts | 356° |
| 2026-04-23 06:31 | -29.38932 | 148.68813 | 36190 ft | 474 kts | 357° |
| 2026-04-23 06:31 | -29.32310 | 148.68359 | 36217 ft | 474 kts | 357° |
| 2026-04-23 06:32 | -29.25645 | 148.67903 | 36238 ft | 472 kts | 356° |
| 2026-04-23 06:32 | -29.19006 | 148.67450 | 36209 ft | 472 kts | 357° |
| 2026-04-23 06:33 | -29.12381 | 148.66998 | 36191 ft | 472 kts | 356° |
| 2026-04-23 06:33 | -29.05707 | 148.66544 | 36216 ft | 473 kts | 357° |
| 2026-04-23 06:34 | -28.99053 | 148.66090 | 36254 ft | 471 kts | 357° |
| 2026-04-23 06:34 | -28.93678 | 148.65726 | 36214 ft | 472 kts | 357° |
| 2026-04-23 06:35 | -28.92643 | 148.65655 | 36236 ft | 472 kts | 356° |
| 2026-04-23 06:36 | -28.86081 | 148.65210 | 36187 ft | 472 kts | 356° |
| 2026-04-23 06:36 | -28.79469 | 148.64763 | 36157 ft | 474 kts | 356° |
| 2026-04-23 06:37 | -28.79220 | 148.64745 | 36156 ft | 474 kts | 356° |
| 2026-04-23 06:37 | -28.72636 | 148.64300 | 36191 ft | 474 kts | 356° |
| 2026-04-23 06:38 | -28.66022 | 148.63852 | 36243 ft | 473 kts | 356° |
| 2026-04-23 06:38 | -28.59461 | 148.63409 | 36251 ft | 472 kts | 356° |
| 2026-04-23 06:39 | -28.52887 | 148.62965 | 36206 ft | 473 kts | 356° |
| 2026-04-23 06:39 | -28.46300 | 148.62523 | 36192 ft | 474 kts | 356° |
| 2026-04-23 06:40 | -28.41674 | 148.62212 | 36232 ft | 473 kts | 356° |
| 2026-04-23 06:40 | -28.35100 | 148.61771 | 36188 ft | 474 kts | 356° |
| 2026-04-23 06:41 | -28.28500 | 148.61327 | 36183 ft | 474 kts | 356° |
| 2026-04-23 06:41 | -28.26496 | 148.61192 | 36189 ft | 474 kts | 356° |
| 2026-04-23 06:42 | -28.21125 | 148.60832 | 36204 ft | 474 kts | 356° |
| 2026-04-23 06:43 | -28.17789 | 148.60609 | 36346 ft | 477 kts | 356° |
| 2026-04-23 06:43 | -28.14408 | 148.60382 | 36093 ft | 472 kts | 356° |
| 2026-04-23 06:43 | -28.11168 | 148.60165 | 36308 ft | 464 kts | 356° |
| 2026-04-23 06:43 | -28.07919 | 148.59949 | 36137 ft | 469 kts | 356° |
| 2026-04-23 06:44 | -28.01444 | 148.59517 | 36218 ft | 469 kts | 356° |
| 2026-04-23 06:44 | -27.94889 | 148.59080 | 36252 ft | 469 kts | 356° |
| 2026-04-23 06:45 | -27.88312 | 148.58641 | 36209 ft | 471 kts | 356° |
| 2026-04-23 06:45 | -27.81769 | 148.58206 | 36168 ft | 472 kts | 356° |
| 2026-04-23 06:46 | -27.75201 | 148.57770 | 36182 ft | 473 kts | 356° |
| 2026-04-23 06:46 | -27.68590 | 148.57332 | 36212 ft | 473 kts | 356° |
| 2026-04-23 06:47 | -27.62029 | 148.56897 | 36223 ft | 472 kts | 356° |
| 2026-04-23 06:47 | -27.55455 | 148.56462 | 36184 ft | 471 kts | 356° |
| 2026-04-23 06:48 | -27.48915 | 148.56029 | 36182 ft | 472 kts | 356° |
| 2026-04-23 06:48 | -27.42388 | 148.55598 | 36220 ft | 471 kts | 356° |
| 2026-04-23 06:49 | -27.35829 | 148.55165 | 36218 ft | 470 kts | 356° |
| 2026-04-23 06:49 | -27.29300 | 148.54735 | 36173 ft | 471 kts | 356° |
| 2026-04-23 06:50 | -27.22743 | 148.54305 | 36168 ft | 472 kts | 355° |
| 2026-04-23 06:50 | -27.16233 | 148.53877 | 36203 ft | 471 kts | 355° |
| 2026-04-23 06:51 | -27.09680 | 148.53445 | 36214 ft | 469 kts | 355° |
| 2026-04-23 06:51 | -27.03163 | 148.53018 | 36175 ft | 470 kts | 355° |